Terminal Aerodrome Forecast
Issued by NWS

Home | Current Version | Previous Version | Graphics & Text | Print | Product List | Glossary On
Versions: 1 2 3 4 5 6 7 8 9 10 11 12 13 14 15
000
FTUS42 KMHX 232340
TAFPGV
TAF
KPGV 232340Z 2400/2424 06010KT P6SM VCSH OVC012
     FM240200 04009KT P6SM VCSH OVC007
     FM241400 06010KT 3SM -SHRA OVC010
     FM242100 09013G20KT 3SM SHRA OVC015
      AMD LTD TO CLD VIS AND WIND=

USA.gov is the U.S. government's official web portal to all federal, state and local government web resources and services.